sensor_id;sensor_type;location;lat;lon;timestamp;P1;durP1;ratioP1;P2;durP2;ratioP2
56860;SDS011;42744;51.094;3.490;2023-04-16T00:00:52;9.60;;;4.20;;
56860;SDS011;42744;51.094;3.490;2023-04-16T00:03:18;8.47;;;3.70;;
56860;SDS011;42744;51.094;3.490;2023-04-16T00:05:44;8.73;;;3.63;;
56860;SDS011;42744;51.094;3.490;2023-04-16T00:08:10;9.80;;;4.07;;
56860;SDS011;42744;51.094;3.490;2023-04-16T00:10:36;6.27;;;3.53;;
56860;SDS011;42744;51.094;3.490;2023-04-16T00:13:02;10.70;;;2.97;;
56860;SDS011;42744;51.094;3.490;2023-04-16T00:15:28;7.03;;;3.00;;
56860;SDS011;42744;51.094;3.490;2023-04-16T00:17:54;6.77;;;3.17;;
56860;SDS011;42744;51.094;3.490;2023-04-16T00:20:20;8.40;;;3.50;;
56860;SDS011;42744;51.094;3.490;2023-04-16T00:22:45;11.70;;;3.10;;
56860;SDS011;42744;51.094;3.490;2023-04-16T00:25:12;4.90;;;2.80;;
56860;SDS011;42744;51.094;3.490;2023-04-16T00:27:47;8.57;;;2.80;;
56860;SDS011;42744;51.094;3.490;2023-04-16T00:30:16;6.63;;;2.70;;
56860;SDS011;42744;51.094;3.490;2023-04-16T00:32:45;10.57;;;3.10;;
56860;SDS011;42744;51.094;3.490;2023-04-16T00:35:11;5.83;;;2.70;;
56860;SDS011;42744;51.094;3.490;2023-04-16T00:37:37;6.93;;;2.57;;
56860;SDS011;42744;51.094;3.490;2023-04-16T00:40:03;7.70;;;2.83;;
56860;SDS011;42744;51.094;3.490;2023-04-16T00:42:29;8.43;;;2.90;;
56860;SDS011;42744;51.094;3.490;2023-04-16T00:44:55;7.63;;;2.40;;
56860;SDS011;42744;51.094;3.490;2023-04-16T00:47:21;5.97;;;2.83;;
56860;SDS011;42744;51.094;3.490;2023-04-16T00:49:47;10.00;;;2.83;;
56860;SDS011;42744;51.094;3.490;2023-04-16T00:52:14;11.93;;;3.30;;
56860;SDS011;42744;51.094;3.490;2023-04-16T00:54:40;6.33;;;3.13;;
56860;SDS011;42744;51.094;3.490;2023-04-16T00:57:06;9.77;;;3.07;;
56860;SDS011;42744;51.094;3.490;2023-04-16T00:59:32;9.63;;;3.70;;
56860;SDS011;42744;51.094;3.490;2023-04-16T01:01:58;6.90;;;3.80;;
56860;SDS011;42744;51.094;3.490;2023-04-16T01:04:24;10.60;;;2.73;;
56860;SDS011;42744;51.094;3.490;2023-04-16T01:06:50;8.63;;;2.50;;
56860;SDS011;42744;51.094;3.490;2023-04-16T01:09:16;12.17;;;2.93;;
56860;SDS011;42744;51.094;3.490;2023-04-16T01:11:42;10.50;;;2.60;;
56860;SDS011;42744;51.094;3.490;2023-04-16T01:14:08;7.40;;;2.30;;
56860;SDS011;42744;51.094;3.490;2023-04-16T01:16:34;10.80;;;2.70;;
56860;SDS011;42744;51.094;3.490;2023-04-16T01:19:01;11.13;;;2.70;;
56860;SDS011;42744;51.094;3.490;2023-04-16T01:21:27;6.93;;;2.40;;
56860;SDS011;42744;51.094;3.490;2023-04-16T01:23:53;6.60;;;2.30;;
56860;SDS011;42744;51.094;3.490;2023-04-16T01:26:19;6.97;;;2.50;;
56860;SDS011;42744;51.094;3.490;2023-04-16T01:28:45;12.20;;;2.80;;
56860;SDS011;42744;51.094;3.490;2023-04-16T01:31:11;6.47;;;2.10;;
56860;SDS011;42744;51.094;3.490;2023-04-16T01:33:37;5.40;;;1.77;;
56860;SDS011;42744;51.094;3.490;2023-04-16T01:36:05;10.37;;;3.40;;
56860;SDS011;42744;51.094;3.490;2023-04-16T01:38:31;6.23;;;2.00;;
56860;SDS011;42744;51.094;3.490;2023-04-16T01:40:57;6.83;;;1.90;;
56860;SDS011;42744;51.094;3.490;2023-04-16T01:43:24;10.17;;;2.77;;
56860;SDS011;42744;51.094;3.490;2023-04-16T01:45:51;10.87;;;2.40;;
56860;SDS011;42744;51.094;3.490;2023-04-16T01:48:23;7.47;;;2.50;;
56860;SDS011;42744;51.094;3.490;2023-04-16T01:50:49;12.73;;;2.43;;
56860;SDS011;42744;51.094;3.490;2023-04-16T01:53:15;9.80;;;2.43;;
56860;SDS011;42744;51.094;3.490;2023-04-16T01:55:40;10.53;;;2.20;;
56860;SDS011;42744;51.094;3.490;2023-04-16T01:58:07;4.67;;;2.07;;
56860;SDS011;42744;51.094;3.490;2023-04-16T02:00:35;7.33;;;2.20;;
56860;SDS011;42744;51.094;3.490;2023-04-16T02:03:01;10.57;;;2.10;;
56860;SDS011;42744;51.094;3.490;2023-04-16T02:05:27;6.93;;;2.13;;
56860;SDS011;42744;51.094;3.490;2023-04-16T02:07:53;8.10;;;2.10;;
56860;SDS011;42744;51.094;3.490;2023-04-16T02:10:19;6.33;;;2.00;;
56860;SDS011;42744;51.094;3.490;2023-04-16T02:12:46;7.23;;;2.00;;
56860;SDS011;42744;51.094;3.490;2023-04-16T02:15:13;6.53;;;2.07;;
56860;SDS011;42744;51.094;3.490;2023-04-16T02:17:41;7.43;;;1.97;;
56860;SDS011;42744;51.094;3.490;2023-04-16T02:20:07;7.07;;;1.80;;
56860;SDS011;42744;51.094;3.490;2023-04-16T02:22:36;9.30;;;1.60;;
56860;SDS011;42744;51.094;3.490;2023-04-16T02:25:03;3.87;;;1.40;;
56860;SDS011;42744;51.094;3.490;2023-04-16T02:27:29;9.33;;;1.87;;
56860;SDS011;42744;51.094;3.490;2023-04-16T02:29:56;5.10;;;2.00;;
56860;SDS011;42744;51.094;3.490;2023-04-16T02:32:22;7.67;;;2.00;;
56860;SDS011;42744;51.094;3.490;2023-04-16T02:34:48;7.43;;;1.80;;
56860;SDS011;42744;51.094;3.490;2023-04-16T02:37:14;6.60;;;1.73;;
56860;SDS011;42744;51.094;3.490;2023-04-16T02:39:40;6.73;;;1.53;;
56860;SDS011;42744;51.094;3.490;2023-04-16T02:42:07;4.73;;;1.17;;
56860;SDS011;42744;51.094;3.490;2023-04-16T02:44:33;8.37;;;1.33;;
56860;SDS011;42744;51.094;3.490;2023-04-16T02:46:59;5.43;;;1.60;;
56860;SDS011;42744;51.094;3.490;2023-04-16T02:49:25;8.27;;;1.93;;
56860;SDS011;42744;51.094;3.490;2023-04-16T02:51:51;5.07;;;1.23;;
56860;SDS011;42744;51.094;3.490;2023-04-16T02:54:17;4.90;;;1.40;;
56860;SDS011;42744;51.094;3.490;2023-04-16T02:56:43;6.80;;;1.60;;
56860;SDS011;42744;51.094;3.490;2023-04-16T02:59:09;8.57;;;2.47;;
56860;SDS011;42744;51.094;3.490;2023-04-16T03:01:35;7.33;;;1.67;;
56860;SDS011;42744;51.094;3.490;2023-04-16T03:04:01;5.73;;;1.23;;
56860;SDS011;42744;51.094;3.490;2023-04-16T03:06:27;7.30;;;1.20;;
56860;SDS011;42744;51.094;3.490;2023-04-16T03:08:53;12.67;;;2.87;;
56860;SDS011;42744;51.094;3.490;2023-04-16T03:11:20;9.80;;;2.00;;
56860;SDS011;42744;51.094;3.490;2023-04-16T03:13:45;10.07;;;1.70;;
56860;SDS011;42744;51.094;3.490;2023-04-16T03:16:12;5.53;;;1.77;;
56860;SDS011;42744;51.094;3.490;2023-04-16T03:18:38;6.40;;;1.57;;
56860;SDS011;42744;51.094;3.490;2023-04-16T03:21:04;4.07;;;1.77;;
56860;SDS011;42744;51.094;3.490;2023-04-16T03:23:30;4.70;;;1.70;;
56860;SDS011;42744;51.094;3.490;2023-04-16T03:25:56;7.07;;;1.67;;
56860;SDS011;42744;51.094;3.490;2023-04-16T03:28:23;5.70;;;1.87;;
56860;SDS011;42744;51.094;3.490;2023-04-16T03:30:49;7.30;;;1.90;;
56860;SDS011;42744;51.094;3.490;2023-04-16T03:33:19;5.33;;;1.50;;
56860;SDS011;42744;51.094;3.490;2023-04-16T03:35:45;8.30;;;1.80;;
56860;SDS011;42744;51.094;3.490;2023-04-16T03:38:12;5.47;;;1.70;;
56860;SDS011;42744;51.094;3.490;2023-04-16T03:40:38;7.07;;;2.20;;
56860;SDS011;42744;51.094;3.490;2023-04-16T03:43:04;10.13;;;1.97;;
56860;SDS011;42744;51.094;3.490;2023-04-16T03:45:31;5.47;;;1.57;;
56860;SDS011;42744;51.094;3.490;2023-04-16T03:47:57;5.53;;;1.60;;
56860;SDS011;42744;51.094;3.490;2023-04-16T03:50:23;4.70;;;1.60;;
56860;SDS011;42744;51.094;3.490;2023-04-16T03:52:49;10.07;;;1.53;;
56860;SDS011;42744;51.094;3.490;2023-04-16T03:55:16;8.17;;;1.40;;
56860;SDS011;42744;51.094;3.490;2023-04-16T03:57:41;7.23;;;1.63;;
56860;SDS011;42744;51.094;3.490;2023-04-16T04:00:08;6.23;;;1.57;;
56860;SDS011;42744;51.094;3.490;2023-04-16T04:02:39;6.23;;;1.70;;
56860;SDS011;42744;51.094;3.490;2023-04-16T04:05:07;7.03;;;1.57;;
56860;SDS011;42744;51.094;3.490;2023-04-16T04:07:34;12.77;;;1.70;;
56860;SDS011;42744;51.094;3.490;2023-04-16T04:10:01;5.50;;;1.73;;
56860;SDS011;42744;51.094;3.490;2023-04-16T04:12:28;6.70;;;1.60;;
56860;SDS011;42744;51.094;3.490;2023-04-16T04:14:56;7.27;;;1.80;;
56860;SDS011;42744;51.094;3.490;2023-04-16T04:17:22;8.43;;;2.00;;
56860;SDS011;42744;51.094;3.490;2023-04-16T04:19:49;7.87;;;2.27;;
56860;SDS011;42744;51.094;3.490;2023-04-16T04:22:16;9.27;;;1.97;;
56860;SDS011;42744;51.094;3.490;2023-04-16T04:24:42;10.57;;;2.03;;
56860;SDS011;42744;51.094;3.490;2023-04-16T04:27:08;8.03;;;2.10;;
56860;SDS011;42744;51.094;3.490;2023-04-16T04:29:35;6.87;;;3.10;;
56860;SDS011;42744;51.094;3.490;2023-04-16T04:32:00;7.53;;;1.80;;
56860;SDS011;42744;51.094;3.490;2023-04-16T04:34:27;8.50;;;2.07;;
56860;SDS011;42744;51.094;3.490;2023-04-16T04:36:53;9.17;;;1.77;;
56860;SDS011;42744;51.094;3.490;2023-04-16T04:39:19;6.03;;;2.13;;
56860;SDS011;42744;51.094;3.490;2023-04-16T04:41:46;8.10;;;1.77;;
56860;SDS011;42744;51.094;3.490;2023-04-16T04:44:12;7.83;;;2.77;;
56860;SDS011;42744;51.094;3.490;2023-04-16T04:46:40;7.23;;;2.10;;
56860;SDS011;42744;51.094;3.490;2023-04-16T04:49:06;10.90;;;2.00;;
56860;SDS011;42744;51.094;3.490;2023-04-16T04:51:32;4.27;;;2.23;;
56860;SDS011;42744;51.094;3.490;2023-04-16T04:53:58;6.80;;;2.30;;
56860;SDS011;42744;51.094;3.490;2023-04-16T04:56:24;5.63;;;2.03;;
56860;SDS011;42744;51.094;3.490;2023-04-16T04:58:50;3.27;;;2.33;;
56860;SDS011;42744;51.094;3.490;2023-04-16T05:01:17;8.63;;;2.50;;
56860;SDS011;42744;51.094;3.490;2023-04-16T05:03:43;6.20;;;3.03;;
56860;SDS011;42744;51.094;3.490;2023-04-16T05:06:09;9.93;;;2.70;;
56860;SDS011;42744;51.094;3.490;2023-04-16T05:08:35;8.20;;;2.23;;
56860;SDS011;42744;51.094;3.490;2023-04-16T05:11:01;8.37;;;2.90;;
56860;SDS011;42744;51.094;3.490;2023-04-16T05:13:27;4.57;;;2.20;;
56860;SDS011;42744;51.094;3.490;2023-04-16T05:15:53;7.23;;;2.40;;
56860;SDS011;42744;51.094;3.490;2023-04-16T05:18:19;7.73;;;2.50;;
56860;SDS011;42744;51.094;3.490;2023-04-16T05:20:45;7.93;;;2.10;;
56860;SDS011;42744;51.094;3.490;2023-04-16T05:23:11;8.17;;;2.30;;
56860;SDS011;42744;51.094;3.490;2023-04-16T05:25:37;6.23;;;2.10;;
56860;SDS011;42744;51.094;3.490;2023-04-16T05:28:03;9.03;;;1.80;;
56860;SDS011;42744;51.094;3.490;2023-04-16T05:30:29;7.83;;;2.00;;
56860;SDS011;42744;51.094;3.490;2023-04-16T05:32:56;7.07;;;1.70;;
56860;SDS011;42744;51.094;3.490;2023-04-16T05:35:22;7.23;;;1.80;;
56860;SDS011;42744;51.094;3.490;2023-04-16T05:37:47;6.63;;;1.37;;
56860;SDS011;42744;51.094;3.490;2023-04-16T05:40:14;3.30;;;1.53;;
56860;SDS011;42744;51.094;3.490;2023-04-16T05:42:40;5.33;;;1.83;;
56860;SDS011;42744;51.094;3.490;2023-04-16T05:45:06;6.80;;;1.40;;
56860;SDS011;42744;51.094;3.490;2023-04-16T05:47:32;6.57;;;1.70;;
56860;SDS011;42744;51.094;3.490;2023-04-16T05:49:58;5.63;;;1.93;;
56860;SDS011;42744;51.094;3.490;2023-04-16T05:52:24;9.33;;;1.70;;
56860;SDS011;42744;51.094;3.490;2023-04-16T05:54:50;5.93;;;1.57;;
56860;SDS011;42744;51.094;3.490;2023-04-16T05:57:16;6.97;;;1.40;;
56860;SDS011;42744;51.094;3.490;2023-04-16T05:59:42;9.40;;;1.77;;
56860;SDS011;42744;51.094;3.490;2023-04-16T06:02:08;6.37;;;1.67;;
56860;SDS011;42744;51.094;3.490;2023-04-16T06:04:35;8.10;;;1.63;;
56860;SDS011;42744;51.094;3.490;2023-04-16T06:07:01;4.30;;;1.57;;
56860;SDS011;42744;51.094;3.490;2023-04-16T06:09:28;9.40;;;1.70;;
56860;SDS011;42744;51.094;3.490;2023-04-16T06:11:54;8.23;;;1.60;;
56860;SDS011;42744;51.094;3.490;2023-04-16T06:14:20;6.30;;;1.70;;
56860;SDS011;42744;51.094;3.490;2023-04-16T06:16:46;5.87;;;1.50;;
56860;SDS011;42744;51.094;3.490;2023-04-16T06:19:12;5.57;;;1.53;;
56860;SDS011;42744;51.094;3.490;2023-04-16T06:21:38;4.33;;;1.30;;
56860;SDS011;42744;51.094;3.490;2023-04-16T06:24:05;3.40;;;1.07;;
56860;SDS011;42744;51.094;3.490;2023-04-16T06:26:31;3.43;;;1.40;;
56860;SDS011;42744;51.094;3.490;2023-04-16T06:28:57;6.63;;;1.90;;
56860;SDS011;42744;51.094;3.490;2023-04-16T06:31:23;4.67;;;1.23;;
56860;SDS011;42744;51.094;3.490;2023-04-16T06:33:49;4.13;;;1.30;;
56860;SDS011;42744;51.094;3.490;2023-04-16T06:36:15;4.30;;;1.53;;
56860;SDS011;42744;51.094;3.490;2023-04-16T06:38:41;3.67;;;1.07;;
56860;SDS011;42744;51.094;3.490;2023-04-16T06:41:07;5.37;;;1.47;;
56860;SDS011;42744;51.094;3.490;2023-04-16T06:43:33;4.23;;;1.10;;
56860;SDS011;42744;51.094;3.490;2023-04-16T06:45:59;4.47;;;1.20;;
56860;SDS011;42744;51.094;3.490;2023-04-16T06:48:25;2.57;;;1.10;;
56860;SDS011;42744;51.094;3.490;2023-04-16T06:50:52;6.47;;;1.13;;
56860;SDS011;42744;51.094;3.490;2023-04-16T06:53:19;3.37;;;1.10;;
56860;SDS011;42744;51.094;3.490;2023-04-16T06:55:45;4.20;;;1.33;;
56860;SDS011;42744;51.094;3.490;2023-04-16T06:58:11;8.87;;;1.80;;
56860;SDS011;42744;51.094;3.490;2023-04-16T07:00:37;3.50;;;1.40;;
56860;SDS011;42744;51.094;3.490;2023-04-16T07:03:03;6.53;;;0.90;;
56860;SDS011;42744;51.094;3.490;2023-04-16T07:05:29;5.37;;;1.53;;
56860;SDS011;42744;51.094;3.490;2023-04-16T07:07:54;4.63;;;1.37;;
56860;SDS011;42744;51.094;3.490;2023-04-16T07:10:22;9.63;;;1.70;;
56860;SDS011;42744;51.094;3.490;2023-04-16T07:12:48;3.47;;;1.30;;
56860;SDS011;42744;51.094;3.490;2023-04-16T07:15:14;3.00;;;1.23;;
56860;SDS011;42744;51.094;3.490;2023-04-16T07:17:40;8.40;;;1.63;;
56860;SDS011;42744;51.094;3.490;2023-04-16T07:20:06;6.90;;;1.50;;
56860;SDS011;42744;51.094;3.490;2023-04-16T07:22:32;2.50;;;1.10;;
56860;SDS011;42744;51.094;3.490;2023-04-16T07:24:59;8.47;;;1.60;;
56860;SDS011;42744;51.094;3.490;2023-04-16T07:27:25;4.37;;;1.40;;
56860;SDS011;42744;51.094;3.490;2023-04-16T07:29:51;3.87;;;1.50;;
56860;SDS011;42744;51.094;3.490;2023-04-16T07:32:17;5.00;;;1.60;;
56860;SDS011;42744;51.094;3.490;2023-04-16T07:34:45;2.70;;;1.20;;
56860;SDS011;42744;51.094;3.490;2023-04-16T07:37:11;6.87;;;1.50;;
56860;SDS011;42744;51.094;3.490;2023-04-16T07:39:37;5.90;;;1.77;;
56860;SDS011;42744;51.094;3.490;2023-04-16T07:42:03;4.53;;;1.43;;
56860;SDS011;42744;51.094;3.490;2023-04-16T07:44:29;6.23;;;2.03;;
56860;SDS011;42744;51.094;3.490;2023-04-16T07:46:56;4.47;;;1.40;;
56860;SDS011;42744;51.094;3.490;2023-04-16T07:49:22;8.63;;;1.37;;
56860;SDS011;42744;51.094;3.490;2023-04-16T07:51:47;4.13;;;1.43;;
56860;SDS011;42744;51.094;3.490;2023-04-16T07:54:14;5.47;;;1.47;;
56860;SDS011;42744;51.094;3.490;2023-04-16T07:56:40;4.70;;;1.23;;
56860;SDS011;42744;51.094;3.490;2023-04-16T07:59:06;6.60;;;1.57;;
56860;SDS011;42744;51.094;3.490;2023-04-16T08:01:32;2.60;;;1.00;;
56860;SDS011;42744;51.094;3.490;2023-04-16T08:03:58;4.43;;;0.80;;
56860;SDS011;42744;51.094;3.490;2023-04-16T08:06:24;3.33;;;1.00;;
56860;SDS011;42744;51.094;3.490;2023-04-16T08:08:50;4.50;;;1.47;;
56860;SDS011;42744;51.094;3.490;2023-04-16T08:11:17;2.97;;;1.27;;
56860;SDS011;42744;51.094;3.490;2023-04-16T08:13:43;3.93;;;1.80;;
56860;SDS011;42744;51.094;3.490;2023-04-16T08:16:09;3.90;;;1.10;;
56860;SDS011;42744;51.094;3.490;2023-04-16T08:18:35;6.03;;;1.30;;
56860;SDS011;42744;51.094;3.490;2023-04-16T08:21:01;4.37;;;1.33;;
56860;SDS011;42744;51.094;3.490;2023-04-16T08:23:27;4.97;;;1.33;;
56860;SDS011;42744;51.094;3.490;2023-04-16T08:25:54;6.93;;;1.50;;
56860;SDS011;42744;51.094;3.490;2023-04-16T08:28:20;5.90;;;1.60;;
56860;SDS011;42744;51.094;3.490;2023-04-16T08:30:45;6.50;;;1.90;;
56860;SDS011;42744;51.094;3.490;2023-04-16T08:33:12;3.97;;;1.23;;
56860;SDS011;42744;51.094;3.490;2023-04-16T08:35:38;5.20;;;1.60;;
56860;SDS011;42744;51.094;3.490;2023-04-16T08:38:04;4.30;;;1.20;;
56860;SDS011;42744;51.094;3.490;2023-04-16T08:40:32;6.07;;;1.43;;
56860;SDS011;42744;51.094;3.490;2023-04-16T08:43:01;4.87;;;1.40;;
56860;SDS011;42744;51.094;3.490;2023-04-16T08:45:30;3.13;;;1.37;;
56860;SDS011;42744;51.094;3.490;2023-04-16T08:47:59;6.77;;;1.80;;
56860;SDS011;42744;51.094;3.490;2023-04-16T08:50:26;5.00;;;1.50;;
56860;SDS011;42744;51.094;3.490;2023-04-16T08:52:55;5.00;;;1.67;;
56860;SDS011;42744;51.094;3.490;2023-04-16T08:55:33;4.47;;;1.50;;
56860;SDS011;42744;51.094;3.490;2023-04-16T08:58:04;5.13;;;2.00;;
56860;SDS011;42744;51.094;3.490;2023-04-16T09:00:40;5.13;;;1.27;;
56860;SDS011;42744;51.094;3.490;2023-04-16T09:03:07;3.20;;;1.33;;
56860;SDS011;42744;51.094;3.490;2023-04-16T09:05:35;4.57;;;1.67;;
56860;SDS011;42744;51.094;3.490;2023-04-16T09:08:01;5.63;;;1.60;;
56860;SDS011;42744;51.094;3.490;2023-04-16T09:10:29;6.30;;;1.50;;
56860;SDS011;42744;51.094;3.490;2023-04-16T09:12:56;2.67;;;1.10;;
56860;SDS011;42744;51.094;3.490;2023-04-16T09:15:22;6.27;;;1.63;;
56860;SDS011;42744;51.094;3.490;2023-04-16T09:17:52;6.60;;;1.73;;
56860;SDS011;42744;51.094;3.490;2023-04-16T09:20:18;4.50;;;1.13;;
56860;SDS011;42744;51.094;3.490;2023-04-16T09:22:45;4.33;;;1.30;;
56860;SDS011;42744;51.094;3.490;2023-04-16T09:25:11;5.97;;;1.30;;
56860;SDS011;42744;51.094;3.490;2023-04-16T09:27:38;7.03;;;1.50;;
56860;SDS011;42744;51.094;3.490;2023-04-16T09:32:50;5.50;;;1.73;;
56860;SDS011;42744;51.094;3.490;2023-04-16T09:35:17;9.53;;;1.87;;
56860;SDS011;42744;51.094;3.490;2023-04-16T09:37:46;6.07;;;1.57;;
56860;SDS011;42744;51.094;3.490;2023-04-16T09:40:23;3.27;;;1.47;;
56860;SDS011;42744;51.094;3.490;2023-04-16T09:42:57;5.10;;;1.23;;
56860;SDS011;42744;51.094;3.490;2023-04-16T09:45:28;4.27;;;1.60;;
56860;SDS011;42744;51.094;3.490;2023-04-16T09:48:01;2.13;;;1.80;;
56860;SDS011;42744;51.094;3.490;2023-04-16T09:50:29;5.80;;;1.57;;
56860;SDS011;42744;51.094;3.490;2023-04-16T09:52:55;4.20;;;1.70;;
56860;SDS011;42744;51.094;3.490;2023-04-16T09:55:27;4.30;;;1.73;;
56860;SDS011;42744;51.094;3.490;2023-04-16T09:58:00;3.13;;;1.40;;
56860;SDS011;42744;51.094;3.490;2023-04-16T10:00:27;6.33;;;1.50;;
56860;SDS011;42744;51.094;3.490;2023-04-16T10:03:04;7.47;;;1.70;;
56860;SDS011;42744;51.094;3.490;2023-04-16T10:05:30;5.20;;;1.53;;
56860;SDS011;42744;51.094;3.490;2023-04-16T10:08:00;8.07;;;2.10;;
56860;SDS011;42744;51.094;3.490;2023-04-16T10:10:28;3.43;;;1.50;;
56860;SDS011;42744;51.094;3.490;2023-04-16T10:12:54;4.20;;;1.70;;
56860;SDS011;42744;51.094;3.490;2023-04-16T10:15:21;3.87;;;1.67;;
56860;SDS011;42744;51.094;3.490;2023-04-16T10:17:47;5.67;;;1.80;;
56860;SDS011;42744;51.094;3.490;2023-04-16T10:20:14;4.93;;;1.63;;
56860;SDS011;42744;51.094;3.490;2023-04-16T10:22:42;5.00;;;1.73;;
56860;SDS011;42744;51.094;3.490;2023-04-16T10:25:08;5.97;;;1.77;;
56860;SDS011;42744;51.094;3.490;2023-04-16T10:27:36;6.17;;;1.80;;
56860;SDS011;42744;51.094;3.490;2023-04-16T10:30:03;4.23;;;1.33;;
56860;SDS011;42744;51.094;3.490;2023-04-16T10:32:30;3.63;;;1.50;;
56860;SDS011;42744;51.094;3.490;2023-04-16T10:34:57;4.40;;;1.70;;
56860;SDS011;42744;51.094;3.490;2023-04-16T10:37:30;5.67;;;1.47;;
56860;SDS011;42744;51.094;3.490;2023-04-16T10:39:59;3.83;;;1.90;;
56860;SDS011;42744;51.094;3.490;2023-04-16T10:42:26;4.03;;;1.30;;
56860;SDS011;42744;51.094;3.490;2023-04-16T10:44:52;2.17;;;1.30;;
56860;SDS011;42744;51.094;3.490;2023-04-16T10:47:18;4.07;;;1.23;;
56860;SDS011;42744;51.094;3.490;2023-04-16T10:49:45;4.70;;;2.10;;
56860;SDS011;42744;51.094;3.490;2023-04-16T10:52:13;5.13;;;1.70;;
56860;SDS011;42744;51.094;3.490;2023-04-16T10:54:41;5.57;;;1.80;;
56860;SDS011;42744;51.094;3.490;2023-04-16T10:57:08;4.97;;;1.60;;
56860;SDS011;42744;51.094;3.490;2023-04-16T10:59:40;3.77;;;1.57;;
56860;SDS011;42744;51.094;3.490;2023-04-16T11:02:27;3.63;;;1.80;;
56860;SDS011;42744;51.094;3.490;2023-04-16T11:04:53;2.97;;;1.47;;
56860;SDS011;42744;51.094;3.490;2023-04-16T11:07:31;3.93;;;1.47;;
56860;SDS011;42744;51.094;3.490;2023-04-16T11:09:58;5.30;;;1.53;;
56860;SDS011;42744;51.094;3.490;2023-04-16T11:12:34;3.07;;;1.60;;
56860;SDS011;42744;51.094;3.490;2023-04-16T11:15:05;7.03;;;2.10;;
56860;SDS011;42744;51.094;3.490;2023-04-16T11:20:16;4.93;;;1.93;;
56860;SDS011;42744;51.094;3.490;2023-04-16T11:22:44;4.47;;;2.27;;
56860;SDS011;42744;51.094;3.490;2023-04-16T11:25:10;2.93;;;1.70;;
56860;SDS011;42744;51.094;3.490;2023-04-16T11:27:37;4.33;;;1.77;;
56860;SDS011;42744;51.094;3.490;2023-04-16T11:30:04;3.83;;;2.10;;
56860;SDS011;42744;51.094;3.490;2023-04-16T11:32:34;5.10;;;1.90;;
56860;SDS011;42744;51.094;3.490;2023-04-16T11:35:03;4.07;;;2.10;;
56860;SDS011;42744;51.094;3.490;2023-04-16T11:37:37;4.57;;;2.03;;
56860;SDS011;42744;51.094;3.490;2023-04-16T11:40:04;5.27;;;2.03;;
56860;SDS011;42744;51.094;3.490;2023-04-16T11:42:31;4.63;;;2.50;;
56860;SDS011;42744;51.094;3.490;2023-04-16T11:44:58;10.93;;;2.53;;
56860;SDS011;42744;51.094;3.490;2023-04-16T11:47:25;3.87;;;2.30;;
56860;SDS011;42744;51.094;3.490;2023-04-16T11:49:51;4.33;;;2.10;;
56860;SDS011;42744;51.094;3.490;2023-04-16T11:52:31;5.70;;;2.13;;
56860;SDS011;42744;51.094;3.490;2023-04-16T11:54:58;5.90;;;2.20;;
56860;SDS011;42744;51.094;3.490;2023-04-16T11:57:28;5.37;;;2.27;;
56860;SDS011;42744;51.094;3.490;2023-04-16T11:59:56;4.83;;;2.33;;
56860;SDS011;42744;51.094;3.490;2023-04-16T12:02:35;4.93;;;2.43;;
56860;SDS011;42744;51.094;3.490;2023-04-16T12:05:07;4.63;;;2.50;;
56860;SDS011;42744;51.094;3.490;2023-04-16T12:08:01;3.90;;;2.00;;
56860;SDS011;42744;51.094;3.490;2023-04-16T12:10:34;3.93;;;2.47;;
56860;SDS011;42744;51.094;3.490;2023-04-16T12:15:55;6.60;;;2.30;;
56860;SDS011;42744;51.094;3.490;2023-04-16T12:18:24;7.77;;;2.67;;
56860;SDS011;42744;51.094;3.490;2023-04-16T12:20:53;5.37;;;2.47;;
56860;SDS011;42744;51.094;3.490;2023-04-16T12:23:26;7.03;;;2.93;;
56860;SDS011;42744;51.094;3.490;2023-04-16T12:25:54;4.13;;;2.20;;
56860;SDS011;42744;51.094;3.490;2023-04-16T12:28:34;4.87;;;2.50;;
56860;SDS011;42744;51.094;3.490;2023-04-16T12:31:02;5.97;;;2.33;;
56860;SDS011;42744;51.094;3.490;2023-04-16T12:33:29;6.43;;;2.60;;
56860;SDS011;42744;51.094;3.490;2023-04-16T12:35:56;5.10;;;2.60;;
56860;SDS011;42744;51.094;3.490;2023-04-16T12:38:22;4.17;;;2.00;;
56860;SDS011;42744;51.094;3.490;2023-04-16T12:40:55;8.93;;;2.77;;
56860;SDS011;42744;51.094;3.490;2023-04-16T12:43:22;5.17;;;2.03;;
56860;SDS011;42744;51.094;3.490;2023-04-16T12:45:49;4.60;;;1.97;;
56860;SDS011;42744;51.094;3.490;2023-04-16T12:48:15;3.67;;;2.23;;
56860;SDS011;42744;51.094;3.490;2023-04-16T12:50:41;2.87;;;1.60;;
56860;SDS011;42744;51.094;3.490;2023-04-16T12:53:08;6.27;;;2.10;;
56860;SDS011;42744;51.094;3.490;2023-04-16T12:55:34;5.53;;;1.80;;
56860;SDS011;42744;51.094;3.490;2023-04-16T12:58:00;6.00;;;2.07;;
56860;SDS011;42744;51.094;3.490;2023-04-16T13:00:26;5.40;;;2.10;;
56860;SDS011;42744;51.094;3.490;2023-04-16T13:02:52;4.33;;;1.90;;
56860;SDS011;42744;51.094;3.490;2023-04-16T13:05:18;5.77;;;2.07;;
56860;SDS011;42744;51.094;3.490;2023-04-16T13:07:44;4.07;;;2.03;;
56860;SDS011;42744;51.094;3.490;2023-04-16T13:10:11;6.93;;;2.03;;
56860;SDS011;42744;51.094;3.490;2023-04-16T13:12:37;3.37;;;1.80;;
56860;SDS011;42744;51.094;3.490;2023-04-16T13:15:03;3.93;;;1.80;;
56860;SDS011;42744;51.094;3.490;2023-04-16T13:17:30;4.10;;;1.90;;
56860;SDS011;42744;51.094;3.490;2023-04-16T13:19:56;4.43;;;1.97;;
56860;SDS011;42744;51.094;3.490;2023-04-16T13:22:21;5.50;;;1.90;;
56860;SDS011;42744;51.094;3.490;2023-04-16T13:24:48;4.53;;;2.20;;
56860;SDS011;42744;51.094;3.490;2023-04-16T13:27:14;4.27;;;1.90;;
56860;SDS011;42744;51.094;3.490;2023-04-16T13:29:41;4.17;;;2.00;;
56860;SDS011;42744;51.094;3.490;2023-04-16T13:32:07;4.70;;;2.27;;
56860;SDS011;42744;51.094;3.490;2023-04-16T13:34:33;4.13;;;1.87;;
56860;SDS011;42744;51.094;3.490;2023-04-16T13:37:00;5.40;;;1.87;;
56860;SDS011;42744;51.094;3.490;2023-04-16T13:39:26;6.10;;;2.13;;
56860;SDS011;42744;51.094;3.490;2023-04-16T13:41:52;7.27;;;2.13;;
56860;SDS011;42744;51.094;3.490;2023-04-16T13:44:18;5.97;;;2.13;;
56860;SDS011;42744;51.094;3.490;2023-04-16T13:46:44;2.50;;;1.37;;
56860;SDS011;42744;51.094;3.490;2023-04-16T13:49:12;4.27;;;1.70;;
56860;SDS011;42744;51.094;3.490;2023-04-16T13:51:38;6.73;;;1.80;;
56860;SDS011;42744;51.094;3.490;2023-04-16T13:54:04;8.67;;;2.10;;
56860;SDS011;42744;51.094;3.490;2023-04-16T13:56:30;5.40;;;1.70;;
56860;SDS011;42744;51.094;3.490;2023-04-16T13:58:56;5.40;;;2.20;;
56860;SDS011;42744;51.094;3.490;2023-04-16T14:01:22;5.67;;;1.83;;
56860;SDS011;42744;51.094;3.490;2023-04-16T14:03:49;3.23;;;2.30;;
56860;SDS011;42744;51.094;3.490;2023-04-16T14:06:15;5.10;;;2.20;;
56860;SDS011;42744;51.094;3.490;2023-04-16T14:08:42;3.37;;;2.40;;
56860;SDS011;42744;51.094;3.490;2023-04-16T14:11:09;4.20;;;2.33;;
56860;SDS011;42744;51.094;3.490;2023-04-16T14:13:36;6.53;;;2.17;;
56860;SDS011;42744;51.094;3.490;2023-04-16T14:16:01;4.43;;;1.87;;
56860;SDS011;42744;51.094;3.490;2023-04-16T14:18:28;5.17;;;2.33;;
56860;SDS011;42744;51.094;3.490;2023-04-16T14:20:54;4.57;;;2.53;;
56860;SDS011;42744;51.094;3.490;2023-04-16T14:23:20;5.50;;;2.20;;
56860;SDS011;42744;51.094;3.490;2023-04-16T14:25:46;4.53;;;2.87;;
56860;SDS011;42744;51.094;3.490;2023-04-16T14:28:12;5.97;;;2.50;;
56860;SDS011;42744;51.094;3.490;2023-04-16T14:30:38;6.50;;;2.73;;
56860;SDS011;42744;51.094;3.490;2023-04-16T14:33:05;4.47;;;2.40;;
56860;SDS011;42744;51.094;3.490;2023-04-16T14:35:31;5.83;;;2.30;;
56860;SDS011;42744;51.094;3.490;2023-04-16T14:38:00;4.47;;;1.90;;
56860;SDS011;42744;51.094;3.490;2023-04-16T14:40:27;4.83;;;2.13;;
56860;SDS011;42744;51.094;3.490;2023-04-16T14:42:53;4.23;;;2.37;;
56860;SDS011;42744;51.094;3.490;2023-04-16T14:45:19;6.40;;;2.20;;
56860;SDS011;42744;51.094;3.490;2023-04-16T14:47:45;5.87;;;1.97;;
56860;SDS011;42744;51.094;3.490;2023-04-16T14:50:12;4.67;;;1.93;;
56860;SDS011;42744;51.094;3.490;2023-04-16T14:52:39;6.83;;;1.63;;
56860;SDS011;42744;51.094;3.490;2023-04-16T14:55:06;8.47;;;2.30;;